Gerrardstown, West Virginia
Current Conditions -  °F | °C
As of 8:53 PM on Saturday 22 Nov 2014 (Local Time) from KMRB Reporting Station
Clear Clear  
Wind Chill: 35°   Ceiling: Unl
Heat Index: 35°   Visibility: 10mi
Dew Point: 19°   Wind: 0mph
Humidity: 52%   Direction: NA
Pressure: 30.21"   Gusts: NA
Location:  39.37°N, 78.1°W
Report Text: KMRB 230153Z AUTO 00000KT 10SM CLR 02/M07 A3021 RMK AO2 SLP237 T00171072 TSNO
Loading
Personal Weather Stations






























Interactive Weather Map New forecast layout! Learn more

10-Day Weather Forecast

Advertisements
Track Severe Weather on mobile